sensor_id;sensor_type;location;lat;lon;timestamp;temperature;humidity
28863;DHT22;15994;51.796;13.006;2024-01-27T00:00:11;5.10;99.90
28863;DHT22;15994;51.796;13.006;2024-01-27T00:02:39;5.20;99.90
28863;DHT22;15994;51.796;13.006;2024-01-27T00:05:07;5.20;99.90
28863;DHT22;15994;51.796;13.006;2024-01-27T00:07:33;5.10;99.90
28863;DHT22;15994;51.796;13.006;2024-01-27T00:10:01;5.10;99.90
28863;DHT22;15994;51.796;13.006;2024-01-27T00:12:27;5.10;99.90
28863;DHT22;15994;51.796;13.006;2024-01-27T00:14:54;5.10;99.90
28863;DHT22;15994;51.796;13.006;2024-01-27T00:17:20;5.10;99.90
28863;DHT22;15994;51.796;13.006;2024-01-27T00:19:49;5.10;99.90
28863;DHT22;15994;51.796;13.006;2024-01-27T00:22:16;5.10;99.90
28863;DHT22;15994;51.796;13.006;2024-01-27T00:24:43;5.10;99.90
28863;DHT22;15994;51.796;13.006;2024-01-27T00:27:10;5.10;99.90
28863;DHT22;15994;51.796;13.006;2024-01-27T00:29:37;5.20;99.90
28863;DHT22;15994;51.796;13.006;2024-01-27T00:32:03;5.10;99.90
28863;DHT22;15994;51.796;13.006;2024-01-27T00:34:30;5.10;99.90
28863;DHT22;15994;51.796;13.006;2024-01-27T00:36:55;5.10;99.90
28863;DHT22;15994;51.796;13.006;2024-01-27T00:39:22;5.10;99.90
28863;DHT22;15994;51.796;13.006;2024-01-27T00:41:49;5.10;99.90
28863;DHT22;15994;51.796;13.006;2024-01-27T00:44:15;5.10;99.90
28863;DHT22;15994;51.796;13.006;2024-01-27T00:46:41;5.00;99.90
28863;DHT22;15994;51.796;13.006;2024-01-27T00:49:08;5.00;99.90
28863;DHT22;15994;51.796;13.006;2024-01-27T00:51:34;5.00;99.90
28863;DHT22;15994;51.796;13.006;2024-01-27T00:54:01;5.00;99.90
28863;DHT22;15994;51.796;13.006;2024-01-27T00:56:27;5.10;99.90
28863;DHT22;15994;51.796;13.006;2024-01-27T00:58:54;5.10;99.90
28863;DHT22;15994;51.796;13.006;2024-01-27T01:01:20;5.00;99.90
28863;DHT22;15994;51.796;13.006;2024-01-27T01:03:47;5.10;99.90
28863;DHT22;15994;51.796;13.006;2024-01-27T01:06:13;5.10;99.90
28863;DHT22;15994;51.796;13.006;2024-01-27T01:08:40;5.00;99.90
28863;DHT22;15994;51.796;13.006;2024-01-27T01:11:06;5.00;99.90
28863;DHT22;15994;51.796;13.006;2024-01-27T01:13:33;4.90;99.90
28863;DHT22;15994;51.796;13.006;2024-01-27T01:15:59;4.90;99.90
28863;DHT22;15994;51.796;13.006;2024-01-27T01:18:26;5.00;99.90
28863;DHT22;15994;51.796;13.006;2024-01-27T01:20:52;4.90;99.90
28863;DHT22;15994;51.796;13.006;2024-01-27T01:23:19;4.90;99.90
28863;DHT22;15994;51.796;13.006;2024-01-27T01:25:45;4.90;99.90
28863;DHT22;15994;51.796;13.006;2024-01-27T01:28:12;4.80;99.90
28863;DHT22;15994;51.796;13.006;2024-01-27T01:30:38;4.80;99.90
28863;DHT22;15994;51.796;13.006;2024-01-27T01:33:05;4.80;99.90
28863;DHT22;15994;51.796;13.006;2024-01-27T01:35:31;4.80;99.90
28863;DHT22;15994;51.796;13.006;2024-01-27T01:37:58;4.70;99.90
28863;DHT22;15994;51.796;13.006;2024-01-27T01:40:24;4.80;99.90
28863;DHT22;15994;51.796;13.006;2024-01-27T01:42:51;4.80;99.90
28863;DHT22;15994;51.796;13.006;2024-01-27T01:45:17;4.90;99.90
28863;DHT22;15994;51.796;13.006;2024-01-27T01:47:44;4.90;99.90
28863;DHT22;15994;51.796;13.006;2024-01-27T01:50:11;5.00;99.90
28863;DHT22;15994;51.796;13.006;2024-01-27T01:52:38;5.00;99.90
28863;DHT22;15994;51.796;13.006;2024-01-27T01:55:06;5.10;99.90
28863;DHT22;15994;51.796;13.006;2024-01-27T01:57:33;5.10;99.90
28863;DHT22;15994;51.796;13.006;2024-01-27T02:00:00;5.10;99.90
28863;DHT22;15994;51.796;13.006;2024-01-27T02:02:26;5.10;99.90
28863;DHT22;15994;51.796;13.006;2024-01-27T02:04:53;5.10;99.90
28863;DHT22;15994;51.796;13.006;2024-01-27T02:07:19;5.10;99.90
28863;DHT22;15994;51.796;13.006;2024-01-27T02:09:46;5.10;99.90
28863;DHT22;15994;51.796;13.006;2024-01-27T02:12:12;5.10;99.90
28863;DHT22;15994;51.796;13.006;2024-01-27T02:14:39;5.10;99.90
28863;DHT22;15994;51.796;13.006;2024-01-27T02:17:05;5.10;99.90
28863;DHT22;15994;51.796;13.006;2024-01-27T02:19:32;5.20;99.90
28863;DHT22;15994;51.796;13.006;2024-01-27T02:21:58;5.20;99.90
28863;DHT22;15994;51.796;13.006;2024-01-27T02:24:25;5.10;99.90
28863;DHT22;15994;51.796;13.006;2024-01-27T02:26:52;5.20;99.90
28863;DHT22;15994;51.796;13.006;2024-01-27T02:29:19;5.20;99.90
28863;DHT22;15994;51.796;13.006;2024-01-27T02:31:45;5.10;99.90
28863;DHT22;15994;51.796;13.006;2024-01-27T02:34:12;5.20;99.90
28863;DHT22;15994;51.796;13.006;2024-01-27T02:36:38;5.20;99.90
28863;DHT22;15994;51.796;13.006;2024-01-27T02:39:05;5.10;99.90
28863;DHT22;15994;51.796;13.006;2024-01-27T02:41:32;5.10;99.90
28863;DHT22;15994;51.796;13.006;2024-01-27T02:44:04;5.10;99.90
28863;DHT22;15994;51.796;13.006;2024-01-27T02:46:31;5.00;99.90
28863;DHT22;15994;51.796;13.006;2024-01-27T02:48:57;5.10;99.90
28863;DHT22;15994;51.796;13.006;2024-01-27T02:51:24;5.10;99.90
28863;DHT22;15994;51.796;13.006;2024-01-27T02:53:50;4.90;99.90
28863;DHT22;15994;51.796;13.006;2024-01-27T02:56:17;4.90;99.90
28863;DHT22;15994;51.796;13.006;2024-01-27T02:58:43;4.80;99.90
28863;DHT22;15994;51.796;13.006;2024-01-27T03:01:10;4.80;99.90
28863;DHT22;15994;51.796;13.006;2024-01-27T03:03:36;4.70;99.90
28863;DHT22;15994;51.796;13.006;2024-01-27T03:06:03;4.70;99.90
28863;DHT22;15994;51.796;13.006;2024-01-27T03:08:29;4.60;99.90
28863;DHT22;15994;51.796;13.006;2024-01-27T03:10:56;4.60;99.90
28863;DHT22;15994;51.796;13.006;2024-01-27T03:13:22;4.50;99.90
28863;DHT22;15994;51.796;13.006;2024-01-27T03:15:49;4.50;99.90
28863;DHT22;15994;51.796;13.006;2024-01-27T03:18:17;4.50;99.90
28863;DHT22;15994;51.796;13.006;2024-01-27T03:20:44;4.50;99.90
28863;DHT22;15994;51.796;13.006;2024-01-27T03:23:10;4.50;99.90
28863;DHT22;15994;51.796;13.006;2024-01-27T03:25:37;4.40;99.90
28863;DHT22;15994;51.796;13.006;2024-01-27T03:28:04;4.40;99.90
28863;DHT22;15994;51.796;13.006;2024-01-27T03:30:30;4.40;99.90
28863;DHT22;15994;51.796;13.006;2024-01-27T03:32:57;4.40;99.90
28863;DHT22;15994;51.796;13.006;2024-01-27T03:35:23;4.40;99.90
28863;DHT22;15994;51.796;13.006;2024-01-27T03:37:50;4.40;99.90
28863;DHT22;15994;51.796;13.006;2024-01-27T03:40:17;4.50;99.90
28863;DHT22;15994;51.796;13.006;2024-01-27T03:42:43;4.50;99.90
28863;DHT22;15994;51.796;13.006;2024-01-27T03:45:10;4.40;99.90
28863;DHT22;15994;51.796;13.006;2024-01-27T03:47:36;4.50;99.90
28863;DHT22;15994;51.796;13.006;2024-01-27T03:50:03;4.50;99.90
28863;DHT22;15994;51.796;13.006;2024-01-27T03:52:30;4.50;99.90
28863;DHT22;15994;51.796;13.006;2024-01-27T03:54:56;4.60;99.90
28863;DHT22;15994;51.796;13.006;2024-01-27T03:57:22;4.50;99.90
28863;DHT22;15994;51.796;13.006;2024-01-27T03:59:49;4.40;99.90
28863;DHT22;15994;51.796;13.006;2024-01-27T04:02:15;4.30;99.90
28863;DHT22;15994;51.796;13.006;2024-01-27T04:04:42;4.30;99.90
28863;DHT22;15994;51.796;13.006;2024-01-27T04:07:08;4.40;99.90
28863;DHT22;15994;51.796;13.006;2024-01-27T04:09:35;4.40;99.90
28863;DHT22;15994;51.796;13.006;2024-01-27T04:12:01;4.50;99.90
28863;DHT22;15994;51.796;13.006;2024-01-27T04:14:28;4.50;99.90
28863;DHT22;15994;51.796;13.006;2024-01-27T04:16:54;4.50;99.90
28863;DHT22;15994;51.796;13.006;2024-01-27T04:19:21;4.50;99.90
28863;DHT22;15994;51.796;13.006;2024-01-27T04:21:48;4.60;99.90
28863;DHT22;15994;51.796;13.006;2024-01-27T04:24:14;4.60;99.90
28863;DHT22;15994;51.796;13.006;2024-01-27T04:26:41;4.60;99.90
28863;DHT22;15994;51.796;13.006;2024-01-27T04:29:07;4.70;99.90
28863;DHT22;15994;51.796;13.006;2024-01-27T04:31:39;4.70;99.90
28863;DHT22;15994;51.796;13.006;2024-01-27T04:34:06;4.60;99.90
28863;DHT22;15994;51.796;13.006;2024-01-27T04:36:32;4.60;99.90
28863;DHT22;15994;51.796;13.006;2024-01-27T04:38:59;4.50;99.90
28863;DHT22;15994;51.796;13.006;2024-01-27T04:41:25;4.50;99.90
28863;DHT22;15994;51.796;13.006;2024-01-27T04:43:52;4.50;99.90
28863;DHT22;15994;51.796;13.006;2024-01-27T04:46:20;4.40;99.90
28863;DHT22;15994;51.796;13.006;2024-01-27T04:48:47;4.40;99.90
28863;DHT22;15994;51.796;13.006;2024-01-27T04:51:14;4.50;99.90
28863;DHT22;15994;51.796;13.006;2024-01-27T04:53:40;4.40;99.90
28863;DHT22;15994;51.796;13.006;2024-01-27T04:56:07;4.40;99.90
28863;DHT22;15994;51.796;13.006;2024-01-27T04:58:35;4.30;99.90
28863;DHT22;15994;51.796;13.006;2024-01-27T05:01:02;4.40;99.90
28863;DHT22;15994;51.796;13.006;2024-01-27T05:03:28;4.40;99.90
28863;DHT22;15994;51.796;13.006;2024-01-27T05:05:55;4.40;99.90
28863;DHT22;15994;51.796;13.006;2024-01-27T05:08:21;4.30;99.90
28863;DHT22;15994;51.796;13.006;2024-01-27T05:10:48;4.30;99.90
28863;DHT22;15994;51.796;13.006;2024-01-27T05:13:14;4.20;99.90
28863;DHT22;15994;51.796;13.006;2024-01-27T05:15:41;4.30;99.90
28863;DHT22;15994;51.796;13.006;2024-01-27T05:18:07;4.30;99.90
28863;DHT22;15994;51.796;13.006;2024-01-27T05:20:35;4.30;99.90
28863;DHT22;15994;51.796;13.006;2024-01-27T05:23:02;4.30;99.90
28863;DHT22;15994;51.796;13.006;2024-01-27T05:25:29;4.40;99.90
28863;DHT22;15994;51.796;13.006;2024-01-27T05:27:55;4.40;99.90
28863;DHT22;15994;51.796;13.006;2024-01-27T05:30:22;4.40;99.90
28863;DHT22;15994;51.796;13.006;2024-01-27T05:32:48;4.40;99.90
28863;DHT22;15994;51.796;13.006;2024-01-27T05:35:15;4.30;99.90
28863;DHT22;15994;51.796;13.006;2024-01-27T05:37:41;4.30;99.90
28863;DHT22;15994;51.796;13.006;2024-01-27T05:40:08;4.30;99.90
28863;DHT22;15994;51.796;13.006;2024-01-27T05:42:35;4.20;99.90
28863;DHT22;15994;51.796;13.006;2024-01-27T05:45:02;4.30;99.90
28863;DHT22;15994;51.796;13.006;2024-01-27T05:47:29;4.30;99.90
28863;DHT22;15994;51.796;13.006;2024-01-27T05:49:56;4.40;99.90
28863;DHT22;15994;51.796;13.006;2024-01-27T05:52:22;4.40;99.90
28863;DHT22;15994;51.796;13.006;2024-01-27T05:54:50;4.30;99.90
28863;DHT22;15994;51.796;13.006;2024-01-27T05:57:17;4.30;99.90
28863;DHT22;15994;51.796;13.006;2024-01-27T05:59:43;4.30;99.90
28863;DHT22;15994;51.796;13.006;2024-01-27T06:02:10;4.30;99.90
28863;DHT22;15994;51.796;13.006;2024-01-27T06:04:36;4.20;99.90
28863;DHT22;15994;51.796;13.006;2024-01-27T06:07:03;4.20;99.90
28863;DHT22;15994;51.796;13.006;2024-01-27T06:09:30;4.20;99.90
28863;DHT22;15994;51.796;13.006;2024-01-27T06:11:59;4.20;99.90
28863;DHT22;15994;51.796;13.006;2024-01-27T06:14:26;4.10;99.90
28863;DHT22;15994;51.796;13.006;2024-01-27T06:16:52;4.10;99.90
28863;DHT22;15994;51.796;13.006;2024-01-27T06:19:19;4.10;99.90
28863;DHT22;15994;51.796;13.006;2024-01-27T06:21:45;4.20;99.90
28863;DHT22;15994;51.796;13.006;2024-01-27T06:24:12;4.10;99.90
28863;DHT22;15994;51.796;13.006;2024-01-27T06:26:38;4.10;99.90
28863;DHT22;15994;51.796;13.006;2024-01-27T06:29:05;4.10;99.90
28863;DHT22;15994;51.796;13.006;2024-01-27T06:31:31;4.10;99.90
28863;DHT22;15994;51.796;13.006;2024-01-27T06:33:58;4.00;99.90
28863;DHT22;15994;51.796;13.006;2024-01-27T06:36:24;4.10;99.90
28863;DHT22;15994;51.796;13.006;2024-01-27T06:38:52;4.10;99.90
28863;DHT22;15994;51.796;13.006;2024-01-27T06:41:19;4.00;99.90
28863;DHT22;15994;51.796;13.006;2024-01-27T06:43:45;4.00;99.90
28863;DHT22;15994;51.796;13.006;2024-01-27T06:46:12;4.00;99.90
28863;DHT22;15994;51.796;13.006;2024-01-27T06:48:38;4.10;99.90
28863;DHT22;15994;51.796;13.006;2024-01-27T06:51:05;4.10;99.90
28863;DHT22;15994;51.796;13.006;2024-01-27T06:53:32;4.20;99.90
28863;DHT22;15994;51.796;13.006;2024-01-27T06:55:58;4.00;99.90
28863;DHT22;15994;51.796;13.006;2024-01-27T06:58:25;4.10;99.90
28863;DHT22;15994;51.796;13.006;2024-01-27T07:00:51;4.00;99.90
28863;DHT22;15994;51.796;13.006;2024-01-27T07:03:18;4.00;99.90
28863;DHT22;15994;51.796;13.006;2024-01-27T07:05:45;4.10;99.90
28863;DHT22;15994;51.796;13.006;2024-01-27T07:08:12;4.10;99.90
28863;DHT22;15994;51.796;13.006;2024-01-27T07:10:38;4.10;99.90
28863;DHT22;15994;51.796;13.006;2024-01-27T07:13:05;4.10;99.90
28863;DHT22;15994;51.796;13.006;2024-01-27T07:15:32;4.20;99.90
28863;DHT22;15994;51.796;13.006;2024-01-27T07:17:59;4.20;99.90
28863;DHT22;15994;51.796;13.006;2024-01-27T07:20:26;4.20;99.90
28863;DHT22;15994;51.796;13.006;2024-01-27T07:22:54;4.20;99.90
28863;DHT22;15994;51.796;13.006;2024-01-27T07:25:20;4.30;99.90
28863;DHT22;15994;51.796;13.006;2024-01-27T07:27:47;4.50;99.90
28863;DHT22;15994;51.796;13.006;2024-01-27T07:30:14;4.50;99.90
28863;DHT22;15994;51.796;13.006;2024-01-27T07:32:41;4.60;99.90
28863;DHT22;15994;51.796;13.006;2024-01-27T07:35:09;4.70;99.90
28863;DHT22;15994;51.796;13.006;2024-01-27T07:37:35;4.80;99.90
28863;DHT22;15994;51.796;13.006;2024-01-27T07:40:02;4.80;99.90
28863;DHT22;15994;51.796;13.006;2024-01-27T07:42:29;4.80;99.90
28863;DHT22;15994;51.796;13.006;2024-01-27T07:44:55;4.80;99.90
28863;DHT22;15994;51.796;13.006;2024-01-27T07:47:22;4.90;99.90
28863;DHT22;15994;51.796;13.006;2024-01-27T07:49:49;4.90;99.90
28863;DHT22;15994;51.796;13.006;2024-01-27T07:52:16;5.00;99.90
28863;DHT22;15994;51.796;13.006;2024-01-27T07:54:42;5.00;99.90
28863;DHT22;15994;51.796;13.006;2024-01-27T07:57:09;5.00;99.90
28863;DHT22;15994;51.796;13.006;2024-01-27T07:59:37;5.00;99.90
28863;DHT22;15994;51.796;13.006;2024-01-27T08:02:03;5.10;99.90
28863;DHT22;15994;51.796;13.006;2024-01-27T08:04:30;5.10;99.90
28863;DHT22;15994;51.796;13.006;2024-01-27T08:06:56;5.20;99.90
28863;DHT22;15994;51.796;13.006;2024-01-27T08:09:23;5.20;99.90
28863;DHT22;15994;51.796;13.006;2024-01-27T08:11:50;5.20;99.90
28863;DHT22;15994;51.796;13.006;2024-01-27T08:14:18;5.30;99.90
28863;DHT22;15994;51.796;13.006;2024-01-27T08:16:45;5.30;99.90
28863;DHT22;15994;51.796;13.006;2024-01-27T08:19:11;5.30;99.90
28863;DHT22;15994;51.796;13.006;2024-01-27T08:21:38;5.40;99.90
28863;DHT22;15994;51.796;13.006;2024-01-27T08:24:05;5.40;99.90
28863;DHT22;15994;51.796;13.006;2024-01-27T08:26:31;5.50;99.90
28863;DHT22;15994;51.796;13.006;2024-01-27T08:28:58;5.50;99.90
28863;DHT22;15994;51.796;13.006;2024-01-27T08:31:24;5.50;99.90
28863;DHT22;15994;51.796;13.006;2024-01-27T08:33:51;5.60;99.90
28863;DHT22;15994;51.796;13.006;2024-01-27T08:36:17;5.60;99.90
28863;DHT22;15994;51.796;13.006;2024-01-27T08:38:44;5.60;99.90
28863;DHT22;15994;51.796;13.006;2024-01-27T08:41:10;5.50;99.90
28863;DHT22;15994;51.796;13.006;2024-01-27T08:43:37;5.50;99.90
28863;DHT22;15994;51.796;13.006;2024-01-27T08:46:04;5.60;99.90
28863;DHT22;15994;51.796;13.006;2024-01-27T08:48:30;5.60;99.90
28863;DHT22;15994;51.796;13.006;2024-01-27T08:50:57;5.70;99.90
28863;DHT22;15994;51.796;13.006;2024-01-27T08:53:23;5.70;99.90
28863;DHT22;15994;51.796;13.006;2024-01-27T08:55:50;5.80;99.90
28863;DHT22;15994;51.796;13.006;2024-01-27T08:58:16;5.90;99.90
28863;DHT22;15994;51.796;13.006;2024-01-27T09:00:42;5.90;99.90
28863;DHT22;15994;51.796;13.006;2024-01-27T09:03:09;6.00;99.90
28863;DHT22;15994;51.796;13.006;2024-01-27T09:05:37;6.00;99.90
28863;DHT22;15994;51.796;13.006;2024-01-27T09:08:05;6.00;99.90
28863;DHT22;15994;51.796;13.006;2024-01-27T09:10:33;6.00;99.90
28863;DHT22;15994;51.796;13.006;2024-01-27T09:12:59;6.10;99.90
28863;DHT22;15994;51.796;13.006;2024-01-27T09:15:26;6.10;99.90
28863;DHT22;15994;51.796;13.006;2024-01-27T09:17:52;6.10;99.90
28863;DHT22;15994;51.796;13.006;2024-01-27T09:20:19;6.10;99.90
28863;DHT22;15994;51.796;13.006;2024-01-27T09:22:46;6.10;99.90
28863;DHT22;15994;51.796;13.006;2024-01-27T09:25:13;6.20;99.90
28863;DHT22;15994;51.796;13.006;2024-01-27T09:27:39;6.30;99.90
28863;DHT22;15994;51.796;13.006;2024-01-27T09:30:07;6.30;99.90
28863;DHT22;15994;51.796;13.006;2024-01-27T09:32:34;6.30;99.90
28863;DHT22;15994;51.796;13.006;2024-01-27T09:35:00;6.20;99.90
28863;DHT22;15994;51.796;13.006;2024-01-27T09:37:27;6.20;99.90
28863;DHT22;15994;51.796;13.006;2024-01-27T09:39:54;6.20;99.90
28863;DHT22;15994;51.796;13.006;2024-01-27T09:42:21;6.30;99.90
28863;DHT22;15994;51.796;13.006;2024-01-27T09:44:49;6.30;99.90
28863;DHT22;15994;51.796;13.006;2024-01-27T09:47:15;6.40;99.90
28863;DHT22;15994;51.796;13.006;2024-01-27T09:49:42;6.40;99.90
28863;DHT22;15994;51.796;13.006;2024-01-27T09:52:09;6.50;99.90
28863;DHT22;15994;51.796;13.006;2024-01-27T09:54:36;6.50;99.90
28863;DHT22;15994;51.796;13.006;2024-01-27T09:57:03;6.50;99.90
28863;DHT22;15994;51.796;13.006;2024-01-27T09:59:29;6.50;99.90
28863;DHT22;15994;51.796;13.006;2024-01-27T10:01:59;6.50;99.90
28863;DHT22;15994;51.796;13.006;2024-01-27T10:04:26;6.50;99.90
28863;DHT22;15994;51.796;13.006;2024-01-27T10:06:53;6.60;99.90
28863;DHT22;15994;51.796;13.006;2024-01-27T10:09:21;6.60;99.90
28863;DHT22;15994;51.796;13.006;2024-01-27T10:11:47;6.60;99.90
28863;DHT22;15994;51.796;13.006;2024-01-27T10:14:14;6.60;99.90
28863;DHT22;15994;51.796;13.006;2024-01-27T10:16:44;6.60;99.90
28863;DHT22;15994;51.796;13.006;2024-01-27T10:19:18;6.60;99.90
28863;DHT22;15994;51.796;13.006;2024-01-27T10:21:46;6.70;99.90
28863;DHT22;15994;51.796;13.006;2024-01-27T10:24:13;6.70;99.90
28863;DHT22;15994;51.796;13.006;2024-01-27T10:26:40;6.80;99.90
28863;DHT22;15994;51.796;13.006;2024-01-27T10:29:06;6.80;99.90
28863;DHT22;15994;51.796;13.006;2024-01-27T10:31:34;6.80;99.90
28863;DHT22;15994;51.796;13.006;2024-01-27T10:34:01;6.90;99.90
28863;DHT22;15994;51.796;13.006;2024-01-27T10:36:43;7.00;99.90
28863;DHT22;15994;51.796;13.006;2024-01-27T10:39:17;7.20;99.90
28863;DHT22;15994;51.796;13.006;2024-01-27T10:41:47;7.20;99.90
28863;DHT22;15994;51.796;13.006;2024-01-27T10:44:15;7.20;99.90
28863;DHT22;15994;51.796;13.006;2024-01-27T10:46:43;7.00;99.90
28863;DHT22;15994;51.796;13.006;2024-01-27T10:49:12;6.90;99.90
28863;DHT22;15994;51.796;13.006;2024-01-27T10:51:53;7.00;99.90
28863;DHT22;15994;51.796;13.006;2024-01-27T10:54:24;7.20;99.90
28863;DHT22;15994;51.796;13.006;2024-01-27T10:56:53;7.20;99.90
28863;DHT22;15994;51.796;13.006;2024-01-27T10:59:27;7.10;99.90
28863;DHT22;15994;51.796;13.006;2024-01-27T11:01:54;7.20;99.90
28863;DHT22;15994;51.796;13.006;2024-01-27T11:04:22;7.10;99.90
28863;DHT22;15994;51.796;13.006;2024-01-27T11:06:49;7.20;99.90
28863;DHT22;15994;51.796;13.006;2024-01-27T11:09:17;7.20;99.90
28863;DHT22;15994;51.796;13.006;2024-01-27T11:11:45;7.30;99.90
28863;DHT22;15994;51.796;13.006;2024-01-27T11:14:12;7.30;99.90
28863;DHT22;15994;51.796;13.006;2024-01-27T11:16:39;7.30;99.90
28863;DHT22;15994;51.796;13.006;2024-01-27T11:19:11;7.20;99.90
28863;DHT22;15994;51.796;13.006;2024-01-27T11:21:37;7.10;99.90
28863;DHT22;15994;51.796;13.006;2024-01-27T11:24:17;7.20;99.90
28863;DHT22;15994;51.796;13.006;2024-01-27T11:26:44;7.40;99.90
28863;DHT22;15994;51.796;13.006;2024-01-27T11:29:11;7.60;99.90
28863;DHT22;15994;51.796;13.006;2024-01-27T11:31:45;7.70;99.90
28863;DHT22;15994;51.796;13.006;2024-01-27T11:34:11;7.70;99.90
28863;DHT22;15994;51.796;13.006;2024-01-27T11:36:42;7.70;99.90
28863;DHT22;15994;51.796;13.006;2024-01-27T11:39:31;7.60;99.90
28863;DHT22;15994;51.796;13.006;2024-01-27T11:42:11;7.60;99.90
28863;DHT22;15994;51.796;13.006;2024-01-27T11:44:39;7.50;99.90
28863;DHT22;15994;51.796;13.006;2024-01-27T11:47:15;7.40;99.90
28863;DHT22;15994;51.796;13.006;2024-01-27T11:49:42;7.50;99.90
28863;DHT22;15994;51.796;13.006;2024-01-27T11:52:09;7.40;99.90
28863;DHT22;15994;51.796;13.006;2024-01-27T11:54:36;7.40;99.90
28863;DHT22;15994;51.796;13.006;2024-01-27T11:57:04;7.30;99.90
28863;DHT22;15994;51.796;13.006;2024-01-27T11:59:30;7.40;99.90
28863;DHT22;15994;51.796;13.006;2024-01-27T12:01:57;7.40;99.90
28863;DHT22;15994;51.796;13.006;2024-01-27T12:04:24;7.40;99.90
28863;DHT22;15994;51.796;13.006;2024-01-27T12:06:50;7.40;99.90
28863;DHT22;15994;51.796;13.006;2024-01-27T12:09:17;7.60;99.90
28863;DHT22;15994;51.796;13.006;2024-01-27T12:11:43;7.70;99.90
28863;DHT22;15994;51.796;13.006;2024-01-27T12:14:11;7.70;99.90
28863;DHT22;15994;51.796;13.006;2024-01-27T12:16:38;7.80;99.90
28863;DHT22;15994;51.796;13.006;2024-01-27T12:19:04;7.80;99.90
28863;DHT22;15994;51.796;13.006;2024-01-27T12:21:31;7.70;99.90
28863;DHT22;15994;51.796;13.006;2024-01-27T12:23:58;7.80;99.90
28863;DHT22;15994;51.796;13.006;2024-01-27T12:26:25;7.90;99.90
28863;DHT22;15994;51.796;13.006;2024-01-27T12:28:54;8.00;99.90
28863;DHT22;15994;51.796;13.006;2024-01-27T12:31:25;8.00;99.90
28863;DHT22;15994;51.796;13.006;2024-01-27T12:33:54;8.10;99.90
28863;DHT22;15994;51.796;13.006;2024-01-27T12:36:21;8.10;99.90
28863;DHT22;15994;51.796;13.006;2024-01-27T12:39:01;8.10;99.90
28863;DHT22;15994;51.796;13.006;2024-01-27T12:41:29;8.10;99.90
28863;DHT22;15994;51.796;13.006;2024-01-27T12:43:58;8.20;99.90
28863;DHT22;15994;51.796;13.006;2024-01-27T12:46:24;8.20;99.90
28863;DHT22;15994;51.796;13.006;2024-01-27T12:48:51;8.20;99.90
28863;DHT22;15994;51.796;13.006;2024-01-27T12:51:18;8.20;99.90
28863;DHT22;15994;51.796;13.006;2024-01-27T12:53:45;8.20;99.90
28863;DHT22;15994;51.796;13.006;2024-01-27T12:56:13;8.30;99.90
28863;DHT22;15994;51.796;13.006;2024-01-27T12:58:41;8.30;99.90
28863;DHT22;15994;51.796;13.006;2024-01-27T13:01:09;8.30;99.90
28863;DHT22;15994;51.796;13.006;2024-01-27T13:03:35;8.40;99.90
28863;DHT22;15994;51.796;13.006;2024-01-27T13:06:02;8.40;99.90
28863;DHT22;15994;51.796;13.006;2024-01-27T13:08:29;8.40;99.90
28863;DHT22;15994;51.796;13.006;2024-01-27T13:10:55;8.40;99.90
28863;DHT22;15994;51.796;13.006;2024-01-27T13:13:22;8.50;99.90
28863;DHT22;15994;51.796;13.006;2024-01-27T13:15:48;8.50;99.90
28863;DHT22;15994;51.796;13.006;2024-01-27T13:18:15;8.50;99.90
28863;DHT22;15994;51.796;13.006;2024-01-27T13:20:41;8.50;99.90
28863;DHT22;15994;51.796;13.006;2024-01-27T13:23:08;8.50;99.90
28863;DHT22;15994;51.796;13.006;2024-01-27T13:25:35;8.40;99.90
28863;DHT22;15994;51.796;13.006;2024-01-27T13:28:01;8.40;99.90
28863;DHT22;15994;51.796;13.006;2024-01-27T13:30:28;8.50;99.90
28863;DHT22;15994;51.796;13.006;2024-01-27T13:32:54;8.40;99.90
28863;DHT22;15994;51.796;13.006;2024-01-27T13:35:21;8.50;99.90
28863;DHT22;15994;51.796;13.006;2024-01-27T13:37:47;8.40;99.90
28863;DHT22;15994;51.796;13.006;2024-01-27T13:40:14;8.40;99.90
28863;DHT22;15994;51.796;13.006;2024-01-27T13:42:40;8.40;99.90
28863;DHT22;15994;51.796;13.006;2024-01-27T13:45:07;8.40;99.90
28863;DHT22;15994;51.796;13.006;2024-01-27T13:47:36;8.40;99.90
28863;DHT22;15994;51.796;13.006;2024-01-27T13:50:03;8.30;99.90
28863;DHT22;15994;51.796;13.006;2024-01-27T13:52:29;8.40;99.90
28863;DHT22;15994;51.796;13.006;2024-01-27T13:54:56;8.40;99.90
28863;DHT22;15994;51.796;13.006;2024-01-27T13:57:22;8.30;99.90
28863;DHT22;15994;51.796;13.006;2024-01-27T13:59:49;8.40;99.90
28863;DHT22;15994;51.796;13.006;2024-01-27T14:02:16;8.40;99.90
28863;DHT22;15994;51.796;13.006;2024-01-27T14:04:42;8.40;99.90
28863;DHT22;15994;51.796;13.006;2024-01-27T14:07:09;8.40;99.90
28863;DHT22;15994;51.796;13.006;2024-01-27T14:09:36;8.40;99.90
28863;DHT22;15994;51.796;13.006;2024-01-27T14:12:02;8.40;99.90
28863;DHT22;15994;51.796;13.006;2024-01-27T14:14:29;8.30;99.90
28863;DHT22;15994;51.796;13.006;2024-01-27T14:16:57;8.30;99.90
28863;DHT22;15994;51.796;13.006;2024-01-27T14:19:23;8.30;99.90
28863;DHT22;15994;51.796;13.006;2024-01-27T14:21:50;8.30;99.90
28863;DHT22;15994;51.796;13.006;2024-01-27T14:24:16;8.30;99.90
28863;DHT22;15994;51.796;13.006;2024-01-27T14:26:43;8.30;99.90
28863;DHT22;15994;51.796;13.006;2024-01-27T14:29:09;8.30;99.90
28863;DHT22;15994;51.796;13.006;2024-01-27T14:31:36;8.30;99.90
28863;DHT22;15994;51.796;13.006;2024-01-27T14:34:03;8.30;99.90
28863;DHT22;15994;51.796;13.006;2024-01-27T14:36:29;8.30;99.90
28863;DHT22;15994;51.796;13.006;2024-01-27T14:38:56;8.30;99.90
28863;DHT22;15994;51.796;13.006;2024-01-27T14:41:22;8.20;99.90
28863;DHT22;15994;51.796;13.006;2024-01-27T14:43:49;8.30;99.90
28863;DHT22;15994;51.796;13.006;2024-01-27T14:46:17;8.20;99.90
28863;DHT22;15994;51.796;13.006;2024-01-27T14:48:44;8.20;99.90
28863;DHT22;15994;51.796;13.006;2024-01-27T14:51:11;8.20;99.90
28863;DHT22;15994;51.796;13.006;2024-01-27T14:53:38;8.10;99.90
28863;DHT22;15994;51.796;13.006;2024-01-27T14:56:05;8.10;99.90
28863;DHT22;15994;51.796;13.006;2024-01-27T14:58:31;8.10;99.90
28863;DHT22;15994;51.796;13.006;2024-01-27T15:00:58;8.10;99.90
28863;DHT22;15994;51.796;13.006;2024-01-27T15:03:24;8.00;99.90
28863;DHT22;15994;51.796;13.006;2024-01-27T15:05:51;8.00;99.90
28863;DHT22;15994;51.796;13.006;2024-01-27T15:08:19;7.90;99.90
28863;DHT22;15994;51.796;13.006;2024-01-27T15:10:46;7.80;99.90
28863;DHT22;15994;51.796;13.006;2024-01-27T15:13:13;7.80;99.90
28863;DHT22;15994;51.796;13.006;2024-01-27T15:15:42;7.70;99.90
28863;DHT22;15994;51.796;13.006;2024-01-27T15:18:08;7.70;99.90
28863;DHT22;15994;51.796;13.006;2024-01-27T15:20:35;7.60;99.90
28863;DHT22;15994;51.796;13.006;2024-01-27T15:23:02;7.50;99.90
28863;DHT22;15994;51.796;13.006;2024-01-27T15:25:29;7.40;99.90
28863;DHT22;15994;51.796;13.006;2024-01-27T15:27:56;7.30;99.90